Time;durP1;ratioP1;P1;durP2;ratioP2;P2;SDS_P1;SDS_P2;PMS_P1;PMS_P2;Temp;Humidity;BMP_temperature;BMP_pressure;BME280_temperature;BME280_humidity;BME280_pressure;Samples;Min_cycle;Max_cycle;Signal;HPM_P1;HPM_P2
2022/10/02 00:01:17;;;;;;;6.70;2.20;;;12.20;99.90;;;;;;6226134;23;20008;-79
2022/10/02 00:03:44;;;;;;;5.55;1.85;;;13.10;99.90;;;;;;6225689;23;20063;-80
2022/10/02 00:06:22;;;;;;;4.43;1.60;;;12.10;99.90;;;;;;6251541;23;20016;-77
2022/10/02 00:08:53;;;;;;;10.93;2.17;;;12.50;99.90;;;;;;6250407;23;20015;-79
2022/10/02 00:11:23;;;;;;;7.03;2.08;;;12.80;99.90;;;;;;6250892;23;20044;-78
2022/10/02 00:13:53;;;;;;;6.43;2.08;;;12.80;99.90;;;;;;6252880;23;20008;-80
2022/10/02 00:16:23;;;;;;;10.45;2.35;;;11.90;99.90;;;;;;6252201;23;20012;-78
2022/10/02 00:18:53;;;;;;;9.07;2.60;;;12.70;99.90;;;;;;6253622;23;20012;-77
2022/10/02 00:26:23;;;;;;;;;;;;;;;;;;;;;
2022/10/02 00:29:30;;;;;;;7.60;3.05;;;10.50;99.90;;;;;;6171324;22;20024;-80
2022/10/02 00:32:50;;;;;;;11.73;3.60;;;11.80;99.90;;;;;;6227865;23;20012;-80
2022/10/02 00:35:34;;;;;;;13.20;4.15;;;13.10;99.90;;;;;;6167590;23;20286;-80
2022/10/02 00:41:57;;;;;;;19.27;4.43;;;10.70;99.90;;;;;;6160613;23;20017;-79
2022/10/02 00:44:46;;;;;;;18.55;4.60;;;12.60;99.90;;;;;;6220939;23;20016;-82
2022/10/02 00:47:37;;;;;;;14.57;4.10;;;12.10;99.90;;;;;;6227598;23;20071;-80
2022/10/02 00:50:34;;;;;;;12.88;4.40;;;11.80;99.90;;;;;;6252755;23;20035;-80
2022/10/02 00:53:30;;;;;;;15.13;4.60;;;12.10;99.90;;;;;;6226309;23;20030;-80
2022/10/02 00:56:27;;;;;;;19.73;4.80;;;12.80;99.90;;;;;;6252219;23;20008;-81
2022/10/02 00:59:20;;;;;;;18.20;4.70;;;12.70;99.90;;;;;;6226370;23;20065;-79
2022/10/02 01:01:53;;;;;;;14.48;4.78;;;12.70;99.90;;;;;;6252191;23;20035;-78
2022/10/02 01:04:35;;;;;;;18.20;4.57;;;12.90;99.90;;;;;;6226844;23;20182;-79
2022/10/02 01:07:04;;;;;;;20.35;4.90;;;11.90;99.90;;;;;;6227268;23;20203;-80
2022/10/02 01:09:31;;;;;;;16.55;5.05;;;12.90;99.90;;;;;;6251768;23;20187;-81
2022/10/02 01:11:57;;;;;;;16.25;4.35;;;11.70;99.90;;;;;;6251559;23;20035;-79
2022/10/02 01:14:41;;;;;;;13.90;5.65;;;12.10;99.90;;;;;;6252685;23;20012;-80
2022/10/02 01:17:31;;;;;;;19.65;4.97;;;11.70;99.90;;;;;;6204540;23;20023;-80
2022/10/02 01:20:06;;;;;;;13.02;4.28;;;12.90;99.90;;;;;;6252594;23;20187;-81
2022/10/02 01:22:47;;;;;;;15.10;4.35;;;11.70;99.90;;;;;;6224633;23;20031;-79
2022/10/02 01:25:27;;;;;;;13.15;3.92;;;12.10;99.90;;;;;;6252216;23;20020;-80
2022/10/02 01:27:53;;;;;;;12.27;3.60;;;12.70;99.90;;;;;;6229126;23;20020;-79
2022/10/02 01:30:20;;;;;;;8.93;3.40;;;11.80;99.90;;;;;;6252494;23;20016;-79
2022/10/02 01:32:56;;;;;;;16.60;3.60;;;11.90;99.90;;;;;;6251632;23;20016;-79
2022/10/02 01:35:26;;;;;;;16.45;4.50;;;12.50;99.90;;;;;;6252416;23;20421;-79
2022/10/02 01:37:54;;;;;;;19.15;4.50;;;12.80;99.90;;;;;;6228522;23;20016;-81
2022/10/02 01:40:32;;;;;;;20.58;3.60;;;11.60;99.90;;;;;;6228090;23;20012;-80
2022/10/02 01:43:17;;;;;;;16.20;4.05;;;12.30;99.90;;;;;;6226855;23;20063;-79
2022/10/02 01:45:46;;;;;;;17.08;3.78;;;11.50;99.90;;;;;;6251028;23;20086;-79
2022/10/02 01:48:15;;;;;;;15.52;3.30;;;12.40;99.90;;;;;;6224583;23;20008;-80
2022/10/02 01:51:21;;;;;;;17.67;4.03;;;11.40;99.90;;;;;;6225607;23;20004;-80
2022/10/02 01:54:14;;;;;;;12.95;3.40;;;11.50;99.90;;;;;;6250867;23;20027;-80
2022/10/02 01:57:08;;;;;;;16.05;3.05;;;11.50;99.90;;;;;;6226365;23;20305;-80
2022/10/02 01:59:52;;;;;;;15.93;3.55;;;11.90;99.90;;;;;;6228179;23;20062;-79
2022/10/02 02:02:36;;;;;;;10.85;3.35;;;11.70;99.90;;;;;;6227352;23;20058;-80
2022/10/02 02:05:29;;;;;;;14.50;3.47;;;12.00;99.90;;;;;;6227370;23;20087;-80
2022/10/02 02:08:07;;;;;;;17.17;3.20;;;11.70;99.90;;;;;;6253454;23;20219;-80
2022/10/02 02:10:47;;;;;;;14.38;3.40;;;12.70;99.90;;;;;;6253031;23;20194;-79
2022/10/02 02:13:25;;;;;;;12.85;3.45;;;12.50;99.90;;;;;;6227686;23;20027;-80
2022/10/02 02:16:03;;;;;;;15.43;3.50;;;11.50;99.90;;;;;;6227591;23;20019;-79
2022/10/02 02:18:39;;;;;;;18.23;3.88;;;12.40;99.90;;;;;;6227009;23;20012;-80
2022/10/02 02:21:26;;;;;;;16.70;3.47;;;11.60;99.90;;;;;;6252685;23;20050;-81
2022/10/02 02:23:55;;;;;;;16.30;3.53;;;11.90;99.90;;;;;;6226561;23;20020;-80
2022/10/02 02:26:24;;;;;;;16.40;3.75;;;12.70;99.90;;;;;;6226061;23;20007;-77
2022/10/02 02:28:54;;;;;;;11.77;3.35;;;12.20;99.90;;;;;;6201589;23;20008;-79
2022/10/02 02:31:24;;;;;;;17.20;3.53;;;12.40;99.90;;;;;;6227208;23;20054;-79
2022/10/02 02:33:58;;;;;;;21.95;3.40;;;12.60;99.90;;;;;;6227056;23;20019;-79
2022/10/02 02:36:29;;;;;;;32.92;3.40;;;12.50;99.90;;;;;;6251722;23;20053;-78
2022/10/02 02:39:04;;;;;;;16.77;3.03;;;11.80;99.90;;;;;;6227691;23;20012;-79
2022/10/02 02:41:38;;;;;;;18.08;2.90;;;12.50;99.90;;;;;;6226437;23;20031;-78
2022/10/02 02:44:15;;;;;;;13.10;2.78;;;11.60;99.90;;;;;;6227099;23;20018;-78
2022/10/02 02:47:03;;;;;;;16.20;3.25;;;12.70;99.90;;;;;;6225602;23;20054;-78
2022/10/02 02:49:45;;;;;;;11.77;2.90;;;11.80;99.90;;;;;;6226085;23;20016;-78
2022/10/02 02:52:18;;;;;;;14.27;3.10;;;11.60;99.90;;;;;;6227426;23;20035;-78
2022/10/02 02:54:53;;;;;;;14.70;2.78;;;12.20;99.90;;;;;;6226646;23;20018;-81
2022/10/02 02:57:27;;;;;;;16.80;4.18;;;11.90;99.90;;;;;;6225976;23;20039;-78
2022/10/02 02:59:58;;;;;;;17.27;3.27;;;12.40;99.90;;;;;;6226936;23;20195;-78
2022/10/02 03:02:26;;;;;;;10.57;2.53;;;12.80;99.90;;;;;;6227441;23;20019;-81
2022/10/02 03:04:52;;;;;;;10.15;2.50;;;12.70;99.90;;;;;;6227292;23;20012;-82
2022/10/02 03:07:18;;;;;;;21.17;2.97;;;12.00;99.90;;;;;;6228320;23;20321;-80
2022/10/02 03:10:00;;;;;;;14.55;3.08;;;13.20;99.90;;;;;;6226749;23;20122;-79
2022/10/02 03:13:01;;;;;;;11.35;2.47;;;12.70;99.90;;;;;;6250243;23;20004;-78
2022/10/02 03:15:40;;;;;;;12.82;2.80;;;12.10;99.90;;;;;;6225753;23;20019;-78
2022/10/02 03:18:11;;;;;;;10.55;2.40;;;13.00;99.90;;;;;;6251277;23;20019;-79
2022/10/02 03:20:59;;;;;;;14.02;2.60;;;13.30;99.90;;;;;;6225816;23;20024;-80
2022/10/02 03:23:44;;;;;;;13.07;2.90;;;12.00;99.90;;;;;;6227121;23;20020;-80
2022/10/02 03:26:29;;;;;;;9.65;2.33;;;12.30;99.90;;;;;;6252323;23;20008;-79
2022/10/02 03:28:57;;;;;;;13.43;2.90;;;12.10;99.90;;;;;;6251115;23;20016;-78
2022/10/02 03:31:27;;;;;;;14.00;2.80;;;12.10;99.90;;;;;;6252791;23;20012;-80
2022/10/02 03:33:57;;;;;;;13.18;2.80;;;12.80;99.90;;;;;;6226739;23;20278;-79
2022/10/02 03:36:24;;;;;;;11.68;2.78;;;12.00;99.90;;;;;;6226946;23;20012;-79
2022/10/02 03:38:53;;;;;;;13.20;2.33;;;12.30;99.90;;;;;;6225896;23;20780;-79
2022/10/02 03:41:18;;;;;;;14.30;2.58;;;12.60;99.90;;;;;;6252272;23;20118;-80
2022/10/02 03:43:44;;;;;;;14.32;2.22;;;12.00;99.90;;;;;;6224928;23;20012;-77
2022/10/02 03:46:10;;;;;;;17.60;2.90;;;12.50;99.90;;;;;;6201923;23;20053;-79
2022/10/02 03:48:36;;;;;;;11.25;2.45;;;12.40;99.90;;;;;;6226211;23;20390;-79
2022/10/02 03:51:02;;;;;;;17.27;2.80;;;11.90;99.90;;;;;;6225740;23;20036;-80
2022/10/02 03:53:33;;;;;;;13.05;2.45;;;12.50;99.90;;;;;;6251806;23;20012;-78
2022/10/02 03:56:21;;;;;;;18.13;2.65;;;12.80;99.90;;;;;;6226051;23;20023;-78
2022/10/02 03:58:53;;;;;;;10.00;2.40;;;12.70;99.90;;;;;;6250453;23;20019;-78
2022/10/02 04:01:22;;;;;;;13.23;2.80;;;11.80;99.90;;;;;;6226744;23;20016;-80
2022/10/02 04:04:19;;;;;;;15.77;2.85;;;12.70;99.90;;;;;;6252168;23;20011;-80
2022/10/02 04:07:04;;;;;;;10.38;2.60;;;12.20;99.90;;;;;;6226478;23;20070;-79
2022/10/02 04:09:50;;;;;;;12.48;2.70;;;12.80;99.90;;;;;;6251505;23;20012;-79
2022/10/02 04:12:24;;;;;;;17.60;2.80;;;11.70;99.90;;;;;;6226744;23;20011;-79
2022/10/02 04:15:20;;;;;;;11.55;2.53;;;12.50;99.90;;;;;;6224723;23;20016;-79
2022/10/02 04:17:50;;;;;;;18.58;2.50;;;12.70;99.90;;;;;;6251799;23;20061;-79
2022/10/02 04:20:30;;;;;;;9.80;2.25;;;12.80;99.90;;;;;;6252051;23;20187;-81
2022/10/02 04:23:12;;;;;;;17.50;2.75;;;12.70;99.90;;;;;;6226125;23;20074;-80
2022/10/02 04:26:15;;;;;;;10.27;2.45;;;12.70;99.90;;;;;;6226068;23;20039;-79
2022/10/02 04:29:17;;;;;;;9.80;2.53;;;10.40;99.90;;;;;;6225434;23;20019;-79
2022/10/02 04:31:48;;;;;;;15.43;2.30;;;12.60;99.90;;;;;;6251173;23;20023;-80
2022/10/02 04:34:13;;;;;;;16.70;2.80;;;12.50;99.90;;;;;;6225481;23;20012;-81
2022/10/02 04:36:44;;;;;;;18.55;2.42;;;12.20;99.90;;;;;;6226435;23;20097;-81
2022/10/02 04:39:35;;;;;;;14.35;2.25;;;12.50;99.90;;;;;;6251547;23;20075;-78
2022/10/02 04:42:26;;;;;;;14.02;3.15;;;11.90;99.90;;;;;;6251192;23;20016;-80
2022/10/02 04:45:19;;;;;;;14.82;2.50;;;12.30;99.90;;;;;;6249567;23;20016;-79
2022/10/02 04:48:01;;;;;;;13.35;3.15;;;12.40;99.90;;;;;;6226019;23;20012;-81
2022/10/02 04:50:47;;;;;;;12.60;2.75;;;11.70;99.90;;;;;;6225976;23;20008;-80
2022/10/02 04:53:37;;;;;;;18.25;3.25;;;12.50;99.90;;;;;;6252030;23;20203;-80
2022/10/02 04:56:20;;;;;;;14.32;2.63;;;11.80;99.90;;;;;;6226846;23;20008;-80
2022/10/02 04:58:49;;;;;;;8.95;2.60;;;12.60;99.90;;;;;;6226497;23;20016;-81
2022/10/02 05:01:20;;;;;;;13.13;2.72;;;12.40;99.90;;;;;;6254422;23;20014;-81
2022/10/02 05:03:49;;;;;;;14.15;2.75;;;11.80;99.90;;;;;;6228144;23;20189;-81
2022/10/02 05:06:47;;;;;;;13.27;3.17;;;11.60;99.90;;;;;;6229290;23;20015;-80
2022/10/02 05:09:45;;;;;;;18.10;2.63;;;11.60;99.90;;;;;;6221416;23;20015;-80
2022/10/02 05:12:25;;;;;;;13.27;3.00;;;12.40;99.90;;;;;;6253483;23;20229;-78
2022/10/02 05:15:06;;;;;;;17.45;3.70;;;11.90;99.90;;;;;;6227726;23;20027;-81
2022/10/02 05:17:37;;;;;;;14.13;2.33;;;11.60;99.90;;;;;;6228614;23;20019;-80
2022/10/02 05:20:39;;;;;;;14.57;2.90;;;12.30;99.90;;;;;;6227369;23;20020;-80
2022/10/02 05:23:41;;;;;;;29.02;2.95;;;12.60;99.90;;;;;;6158965;23;20020;-79
2022/10/02 05:26:33;;;;;;;17.52;2.63;;;11.80;99.90;;;;;;6227826;23;20063;-79
2022/10/02 05:29:22;;;;;;;15.23;2.45;;;11.60;99.90;;;;;;6158324;23;20015;-79
2022/10/02 05:32:20;;;;;;;20.83;3.00;;;12.40;99.90;;;;;;6252762;23;20067;-79
2022/10/02 05:35:11;;;;;;;12.13;2.05;;;11.70;99.90;;;;;;6227008;23;20023;-80
2022/10/02 05:37:45;;;;;;;17.95;3.28;;;11.50;99.90;;;;;;6227641;23;20024;-81
2022/10/02 05:40:17;;;;;;;15.43;2.72;;;12.90;99.90;;;;;;6253593;23;20012;-80
2022/10/02 05:42:57;;;;;;;18.10;2.80;;;12.30;99.90;;;;;;6228221;23;20018;-81
2022/10/02 05:45:33;;;;;;;11.18;2.38;;;11.30;99.90;;;;;;6227906;23;20012;-80
2022/10/02 05:48:17;;;;;;;13.90;2.95;;;12.10;99.90;;;;;;6227578;23;20206;-81
2022/10/02 05:50:49;;;;;;;10.88;3.70;;;12.20;99.90;;;;;;6227173;23;20008;-80
2022/10/02 05:53:45;;;;;;;17.80;2.38;;;12.00;99.90;;;;;;6227873;23;20032;-81
2022/10/02 05:56:46;;;;;;;16.30;2.70;;;12.00;99.90;;;;;;6227028;23;20008;-81
2022/10/02 05:59:27;;;;;;;15.55;2.60;;;11.90;99.90;;;;;;6252160;23;20095;-81
2022/10/02 06:01:54;;;;;;;17.33;2.42;;;11.40;99.90;;;;;;6227657;23;20036;-79
2022/10/02 06:04:30;;;;;;;13.13;2.50;;;12.00;99.90;;;;;;6202461;23;20048;-80
2022/10/02 06:07:08;;;;;;;17.38;2.47;;;12.00;99.90;;;;;;6226800;23;20230;-78
2022/10/02 06:09:47;;;;;;;13.95;2.13;;;11.40;99.90;;;;;;6250772;23;20008;-79
2022/10/02 06:12:22;;;;;;;17.35;2.72;;;11.70;99.90;;;;;;6227742;23;20166;-78
2022/10/02 06:15:21;;;;;;;21.83;3.17;;;12.00;99.90;;;;;;6224850;23;20020;-77
2022/10/02 06:17:53;;;;;;;11.35;2.13;;;11.20;99.90;;;;;;6201540;23;20012;-77
2022/10/02 06:20:38;;;;;;;14.80;2.20;;;11.50;99.90;;;;;;6226701;23;20027;-78
2022/10/02 06:23:17;;;;;;;16.08;2.97;;;11.30;99.90;;;;;;6225501;23;20078;-78
2022/10/02 06:25:47;;;;;;;19.15;2.95;;;12.30;99.90;;;;;;6225024;23;20012;-77
2022/10/02 06:28:24;;;;;;;16.33;3.10;;;12.30;99.90;;;;;;6227237;23;20008;-78
2022/10/02 06:31:10;;;;;;;14.77;2.25;;;11.70;99.90;;;;;;6250169;23;20008;-77
2022/10/02 06:33:36;;;;;;;11.15;2.67;;;12.30;99.90;;;;;;6252584;23;20024;-78
2022/10/02 06:36:16;;;;;;;12.82;2.30;;;11.90;99.90;;;;;;6199947;23;20316;-77
2022/10/02 06:39:06;;;;;;;9.52;2.10;;;12.90;99.90;;;;;;6227293;23;20035;-78
2022/10/02 06:41:49;;;;;;;13.07;2.50;;;12.00;99.90;;;;;;6252219;23;20039;-78
2022/10/02 06:44:36;;;;;;;10.43;2.40;;;12.90;99.90;;;;;;6226559;23;20070;-78
2022/10/02 06:47:16;;;;;;;14.98;2.55;;;12.90;99.90;;;;;;6225834;23;20008;-78
2022/10/02 06:49:53;;;;;;;11.55;2.00;;;12.40;99.90;;;;;;6251111;23;20023;-78
2022/10/02 06:52:48;;;;;;;10.32;1.80;;;12.60;99.90;;;;;;6226241;23;20008;-76
2022/10/02 06:55:32;;;;;;;8.97;2.10;;;12.90;99.90;;;;;;6225558;23;20012;-77
2022/10/02 06:58:08;;;;;;;8.65;2.10;;;13.90;99.90;;;;;;6226777;23;20039;-80
2022/10/02 07:00:59;;;;;;;9.05;1.88;;;13.30;99.90;;;;;;6226781;23;20019;-78
2022/10/02 07:03:43;;;;;;;9.23;1.73;;;14.00;99.90;;;;;;6177564;23;20294;-78
2022/10/02 07:06:22;;;;;;;11.32;1.73;;;14.50;99.90;;;;;;6225655;23;20062;-79
2022/10/02 07:09:12;;;;;;;9.02;1.90;;;13.60;99.90;;;;;;6251278;23;20233;-78
2022/10/02 07:11:45;;;;;;;6.95;1.50;;;13.60;99.90;;;;;;6228219;23;20015;-78
2022/10/02 07:14:38;;;;;;;13.45;2.08;;;13.50;99.90;;;;;;6229357;23;20019;-79
2022/10/02 07:17:19;;;;;;;10.27;2.10;;;14.40;99.90;;;;;;6251399;23;20012;-79
2022/10/02 07:20:23;;;;;;;9.95;1.70;;;12.80;99.90;;;;;;6228280;23;20012;-79
2022/10/02 07:23:08;;;;;;;11.93;2.10;;;13.70;99.90;;;;;;6229991;23;20060;-79
2022/10/02 07:25:57;;;;;;;11.15;2.28;;;13.30;99.90;;;;;;6225045;23;20024;-79
2022/10/02 07:28:50;;;;;;;10.00;2.92;;;14.00;99.90;;;;;;6199779;23;20384;-79
2022/10/02 07:31:26;;;;;;;12.93;2.67;;;13.40;99.90;;;;;;6224124;23;20028;-78
2022/10/02 07:34:24;;;;;;;11.63;2.10;;;14.30;99.90;;;;;;6224579;23;20251;-79
2022/10/02 07:37:14;;;;;;;9.68;2.00;;;13.50;99.90;;;;;;6223140;23;20008;-78
2022/10/02 07:40:02;;;;;;;11.30;2.95;;;14.00;99.90;;;;;;6224380;23;20007;-78
2022/10/02 07:42:33;;;;;;;9.75;2.17;;;13.50;99.90;;;;;;6250052;23;20064;-78
2022/10/02 07:45:17;;;;;;;13.60;2.47;;;14.00;99.90;;;;;;6226364;23;20191;-78
2022/10/02 07:47:46;;;;;;;13.70;2.30;;;13.80;99.90;;;;;;6252693;23;20329;-79
2022/10/02 07:50:21;;;;;;;12.18;2.88;;;14.30;99.90;;;;;;6251775;23;20035;-78
2022/10/02 07:53:12;;;;;;;15.15;2.47;;;14.50;99.90;;;;;;6227105;23;20004;-78
2022/10/02 07:55:42;;;;;;;11.13;2.75;;;14.00;99.90;;;;;;6226915;23;20302;-78
2022/10/02 07:58:14;;;;;;;10.70;2.60;;;14.10;99.90;;;;;;6201503;23;20008;-78
2022/10/02 08:00:49;;;;;;;16.10;2.53;;;13.70;99.90;;;;;;6252091;23;20043;-78
2022/10/02 08:03:20;;;;;;;14.40;3.08;;;14.50;99.90;;;;;;6252682;23;20198;-79
2022/10/02 08:05:54;;;;;;;7.97;2.40;;;13.80;99.90;;;;;;6250958;23;20016;-77
2022/10/02 08:08:55;;;;;;;10.38;2.05;;;13.60;99.90;;;;;;6201654;23;20036;-79
2022/10/02 08:11:42;;;;;;;13.35;2.63;;;14.80;99.90;;;;;;6249747;23;20008;-79
2022/10/02 08:14:37;;;;;;;10.23;2.10;;;14.90;99.90;;;;;;6226520;23;20039;-78
2022/10/02 08:17:27;;;;;;;7.47;2.17;;;14.60;99.90;;;;;;6251088;23;20237;-78
2022/10/02 08:19:57;;;;;;;11.80;2.20;;;14.20;99.90;;;;;;6227021;23;20020;-78
2022/10/02 08:22:41;;;;;;;9.73;2.17;;;13.80;99.90;;;;;;6226175;23;20062;-77
2022/10/02 08:25:19;;;;;;;8.48;1.95;;;14.00;99.90;;;;;;6226315;23;20106;-78
2022/10/02 08:27:53;;;;;;;9.73;2.13;;;15.30;99.90;;;;;;6227052;23;20008;-77
2022/10/02 08:30:18;;;;;;;10.25;2.03;;;14.80;99.90;;;;;;6252034;23;20020;-77
2022/10/02 08:32:46;;;;;;;6.03;2.08;;;15.30;99.90;;;;;;6201989;23;20008;-77
2022/10/02 08:35:18;;;;;;;6.53;2.05;;;15.00;99.90;;;;;;6203921;23;20632;-77
2022/10/02 08:38:15;;;;;;;6.53;1.85;;;15.30;99.90;;;;;;6229078;23;20048;-77
2022/10/02 08:41:18;;;;;;;8.35;1.95;;;15.10;99.90;;;;;;6192237;23;20020;-77
2022/10/02 08:44:03;;;;;;;7.63;2.20;;;14.20;99.90;;;;;;6252634;23;20020;-77
2022/10/02 08:46:29;;;;;;;11.00;2.60;;;14.10;99.90;;;;;;6229124;23;20015;-77
2022/10/02 08:49:32;;;;;;;8.35;2.10;;;14.10;99.90;;;;;;6254151;23;20008;-77
2022/10/02 08:52:45;;;;;;;9.65;2.13;;;14.00;99.90;;;;;;6252680;23;20008;-77
2022/10/02 08:55:46;;;;;;;7.97;2.10;;;15.20;99.90;;;;;;6228811;23;20020;-77
2022/10/02 08:58:27;;;;;;;10.15;2.58;;;14.00;99.90;;;;;;6224971;23;20194;-77
2022/10/02 09:01:20;;;;;;;9.23;2.03;;;14.50;99.90;;;;;;6252600;23;20054;-77
2022/10/02 09:03:54;;;;;;;9.18;2.17;;;14.30;99.90;;;;;;6252315;23;20020;-77
2022/10/02 09:06:44;;;;;;;11.02;2.10;;;15.30;99.90;;;;;;6228493;23;20577;-77
2022/10/02 09:09:38;;;;;;;11.13;2.45;;;15.10;99.90;;;;;;6252696;23;20194;-78
2022/10/02 09:12:48;;;;;;;10.68;2.78;;;14.90;99.90;;;;;;6227744;23;20007;-76
2022/10/02 09:15:36;;;;;;;9.27;2.53;;;15.20;99.90;;;;;;6228256;23;20066;-77
2022/10/02 09:18:08;;;;;;;6.80;1.80;;;15.00;99.90;;;;;;6225999;23;20019;-76
2022/10/02 09:21:07;;;;;;;6.00;2.38;;;14.60;99.90;;;;;;6225763;23;20113;-76
2022/10/02 09:24:30;;;;;;;7.55;2.00;;;14.00;99.90;;;;;;6227832;23;20027;-76
2022/10/02 09:27:07;;;;;;;6.22;1.98;;;14.80;99.90;;;;;;6150779;23;20031;-76
2022/10/02 09:30:11;;;;;;;8.13;2.00;;;14.60;99.90;;;;;;6252901;23;20012;-77
2022/10/02 09:32:56;;;;;;;10.05;2.33;;;14.30;99.90;;;;;;6226394;23;20058;-77
2022/10/02 09:35:40;;;;;;;13.57;5.25;;;15.40;99.90;;;;;;6253733;23;20062;-77
2022/10/02 09:38:10;;;;;;;10.35;3.35;;;14.40;99.90;;;;;;6228105;23;20019;-76
2022/10/02 09:40:58;;;;;;;9.20;2.97;;;14.20;99.90;;;;;;6252830;23;20322;-76
2022/10/02 09:44:00;;;;;;;8.65;3.10;;;14.60;99.90;;;;;;6253535;23;20183;-76
2022/10/02 09:46:38;;;;;;;11.05;4.28;;;15.30;99.90;;;;;;6251184;23;20063;-77
2022/10/02 09:49:42;;;;;;;8.48;3.00;;;14.70;99.90;;;;;;6223273;23;20008;-77
2022/10/02 09:52:23;;;;;;;5.55;1.95;;;16.40;99.90;;;;;;6225470;23;20015;-78
2022/10/02 09:55:16;;;;;;;10.82;2.60;;;16.50;99.90;;;;;;6251645;23;20026;-77
2022/10/02 09:58:01;;;;;;;8.20;2.10;;;16.10;99.90;;;;;;6251343;23;20024;-75
2022/10/02 10:00:59;;;;;;;7.30;2.30;;;16.10;99.90;;;;;;6225676;23;20016;-75
2022/10/02 10:03:59;;;;;;;8.98;1.95;;;17.20;99.90;;;;;;6249910;23;20058;-75
2022/10/02 10:06:43;;;;;;;6.82;1.83;;;17.10;99.90;;;;;;6250920;23;20012;-76
2022/10/02 10:09:21;;;;;;;11.60;2.27;;;16.10;99.90;;;;;;6226096;23;20287;-75
2022/10/02 10:11:54;;;;;;;9.43;2.38;;;16.60;99.90;;;;;;6226084;23;20039;-76
2022/10/02 10:14:42;;;;;;;12.90;2.58;;;16.20;99.90;;;;;;6225788;23;20016;-75
2022/10/02 10:17:20;;;;;;;7.10;2.03;;;16.40;99.90;;;;;;6251446;23;20019;-76
2022/10/02 10:20:21;;;;;;;7.53;1.60;;;17.20;99.90;;;;;;6249988;23;20016;-76
2022/10/02 10:23:06;;;;;;;7.75;2.40;;;17.20;99.90;;;;;;6227277;23;20027;-75
2022/10/02 10:25:49;;;;;;;11.75;2.42;;;16.50;99.90;;;;;;6227014;23;20027;-75
2022/10/02 10:28:57;;;;;;;10.13;1.83;;;16.00;99.90;;;;;;6252086;23;20008;-75
2022/10/02 10:31:48;;;;;;;14.15;2.90;;;16.10;99.90;;;;;;6180963;23;20455;-75
2022/10/02 10:34:38;;;;;;;10.25;2.50;;;15.90;99.90;;;;;;6226285;23;20070;-75
2022/10/02 10:40:37;;;;;;;11.13;2.47;;;15.50;99.90;;;;;;6251039;23;20016;-74
2022/10/02 10:43:55;;;;;;;13.20;2.28;;;15.80;99.90;;;;;;6224843;23;20094;-75
2022/10/02 10:46:32;;;;;;;13.05;2.05;;;16.10;99.90;;;;;;6169434;23;20012;-75
2022/10/02 10:49:08;;;;;;;10.23;1.85;;;15.90;99.90;;;;;;6225882;23;20008;-76
2022/10/02 10:52:12;;;;;;;8.27;2.13;;;15.90;99.90;;;;;;6225710;23;20016;-75
2022/10/02 10:54:46;;;;;;;8.73;2.53;;;15.50;99.90;;;;;;6251409;23;20028;-76
2022/10/02 10:57:14;;;;;;;7.55;2.03;;;14.90;99.90;;;;;;6225925;23;20194;-76
2022/10/02 11:00:00;;;;;;;14.13;2.38;;;15.00;99.90;;;;;;6225221;23;20069;-75
2022/10/02 11:02:56;;;;;;;9.93;2.85;;;14.70;99.90;;;;;;6251733;23;20252;-75
2022/10/02 11:05:56;;;;;;;11.18;1.98;;;14.90;99.90;;;;;;6250675;23;20008;-75
2022/10/02 11:08:46;;;;;;;11.88;2.15;;;15.40;99.90;;;;;;6226116;23;20071;-76
2022/10/02 11:11:31;;;;;;;12.93;2.42;;;15.80;99.90;;;;;;6224520;23;20008;-74
2022/10/02 11:14:16;;;;;;;11.43;2.92;;;15.90;99.90;;;;;;6176581;23;20020;-75
2022/10/02 11:16:57;;;;;;;9.18;2.22;;;16.00;99.90;;;;;;6250785;23;20040;-75
2022/10/02 11:19:41;;;;;;;6.30;1.85;;;16.00;99.90;;;;;;6226581;23;20070;-76
2022/10/02 11:22:44;;;;;;;10.13;2.30;;;16.10;99.90;;;;;;6251242;23;20253;-75
2022/10/02 11:25:22;;;;;;;10.93;2.05;;;16.10;99.90;;;;;;6248792;23;20263;-76
2022/10/02 11:28:27;;;;;;;11.88;2.30;;;16.10;99.90;;;;;;6226531;23;20008;-76
2022/10/02 11:31:28;;;;;;;10.90;2.08;;;16.30;99.90;;;;;;6251067;23;20012;-76
2022/10/02 11:33:55;;;;;;;10.90;2.47;;;16.50;99.90;;;;;;6250924;23;20226;-77
2022/10/02 11:37:02;;;;;;;8.80;1.90;;;16.60;99.90;;;;;;6250621;23;20012;-77
2022/10/02 11:39:52;;;;;;;8.68;1.58;;;16.40;99.90;;;;;;6225831;23;20206;-76
2022/10/02 11:42:23;;;;;;;12.13;2.70;;;15.90;99.90;;;;;;6251133;23;20425;-76
2022/10/02 11:45:28;;;;;;;12.20;2.08;;;15.70;99.90;;;;;;6250748;23;20445;-76
2022/10/02 11:48:17;;;;;;;6.55;1.77;;;15.60;99.90;;;;;;6104968;23;20017;-77
2022/10/02 11:50:43;;;;;;;6.60;1.80;;;15.50;99.90;;;;;;6106462;23;20243;-76
2022/10/02 11:53:28;;;;;;;7.72;2.00;;;15.70;99.90;;;;;;6170190;23;20008;-76
2022/10/02 11:56:20;;;;;;;10.43;2.03;;;15.90;99.90;;;;;;6250766;23;20191;-77
2022/10/02 11:59:23;;;;;;;8.60;2.60;;;16.10;99.90;;;;;;6235179;23;20031;-78
2022/10/02 12:01:56;;;;;;;9.40;1.70;;;16.20;99.90;;;;;;6226353;23;20160;-77
2022/10/02 12:04:35;;;;;;;8.18;1.80;;;16.30;99.90;;;;;;6250645;23;20039;-76
2022/10/02 12:07:03;;;;;;;8.88;1.98;;;16.40;99.90;;;;;;6250993;23;20062;-76
2022/10/02 12:09:53;;;;;;;9.75;2.00;;;16.30;99.90;;;;;;6253772;23;20306;-76
2022/10/02 12:12:43;;;;;;;9.45;2.05;;;16.40;99.90;;;;;;6254376;23;20063;-76
2022/10/02 12:15:39;;;;;;;7.90;1.70;;;16.50;99.90;;;;;;6253718;23;20016;-76
2022/10/02 12:18:19;;;;;;;9.02;1.67;;;16.30;99.90;;;;;;6230355;23;20039;-76
2022/10/02 12:27:09;;;;;;;8.15;2.25;;;16.20;99.90;;;;;;6253996;23;20154;-77
2022/10/02 12:29:48;;;;;;;12.30;1.92;;;15.90;99.90;;;;;;6229168;23;20008;-75
2022/10/02 12:32:35;;;;;;;8.05;2.15;;;16.10;99.90;;;;;;6253943;23;20016;-76
2022/10/02 12:35:22;;;;;;;10.88;2.58;;;15.80;99.90;;;;;;6254194;23;20019;-75
2022/10/02 12:38:03;;;;;;;14.55;3.35;;;15.60;99.90;;;;;;6254016;23;20026;-76
2022/10/02 12:40:40;;;;;;;11.95;2.50;;;15.50;99.90;;;;;;6228400;23;20377;-78
2022/10/02 12:43:38;;;;;;;9.38;2.15;;;15.50;99.90;;;;;;6254399;23;20039;-76
2022/10/02 12:46:27;;;;;;;7.93;2.78;;;15.30;99.90;;;;;;6254387;23;20226;-77
2022/10/02 12:49:05;;;;;;;10.73;2.33;;;15.30;99.90;;;;;;6255144;23;20008;-77
2022/10/02 12:52:06;;;;;;;6.85;1.85;;;15.60;99.90;;;;;;6254534;23;20271;-78
2022/10/02 12:55:23;;;;;;;9.23;1.98;;;15.50;99.90;;;;;;6154396;23;20179;-77
2022/10/02 12:58:03;;;;;;;13.13;2.55;;;15.60;99.90;;;;;;6108342;23;20017;-77
2022/10/02 13:00:38;;;;;;;12.05;2.65;;;15.80;99.90;;;;;;6229055;23;20039;-77
2022/10/02 13:03:17;;;;;;;9.13;2.30;;;16.00;99.90;;;;;;6255126;23;20012;-76
2022/10/02 13:05:55;;;;;;;9.48;1.80;;;15.90;99.90;;;;;;6254676;23;20079;-78
2022/10/02 13:08:21;;;;;;;11.63;2.53;;;16.10;99.90;;;;;;6253778;23;20015;-78
2022/10/02 13:10:59;;;;;;;12.40;2.53;;;16.10;99.90;;;;;;6254848;23;20067;-76
2022/10/02 13:13:46;;;;;;;10.20;1.98;;;16.10;99.90;;;;;;6228500;23;20020;-78
2022/10/02 13:16:21;;;;;;;9.52;1.70;;;16.10;99.90;;;;;;6229344;23;20008;-78
2022/10/02 13:22:33;;;;;;;9.23;2.15;;;15.60;99.90;;;;;;6210963;23;20022;-78
2022/10/02 13:25:17;;;;;;;12.30;2.45;;;13.80;99.90;;;;;;6197897;23;20203;-77
2022/10/02 13:28:12;;;;;;;12.05;2.33;;;15.50;99.90;;;;;;6197697;23;20101;-77
2022/10/02 13:31:19;;;;;;;11.70;2.05;;;15.70;99.90;;;;;;6172730;23;20023;-77
2022/10/02 13:34:05;;;;;;;10.60;2.40;;;15.80;99.90;;;;;;6100277;23;20024;-77
2022/10/02 13:36:50;;;;;;;7.32;2.10;;;15.90;99.90;;;;;;6196657;23;20055;-76
2022/10/02 13:39:18;;;;;;;13.18;2.22;;;16.00;99.90;;;;;;6197635;23;20043;-78
2022/10/02 13:41:55;;;;;;;13.77;2.08;;;15.90;99.90;;;;;;6197045;23;20180;-79
2022/10/02 13:44:27;;;;;;;10.38;2.67;;;16.00;99.90;;;;;;6196108;23;20034;-78
2022/10/02 13:47:03;;;;;;;13.38;2.25;;;16.00;99.90;;;;;;6197420;23;20015;-79
2022/10/02 13:49:46;;;;;;;12.48;2.63;;;16.20;99.90;;;;;;6171856;23;20021;-78
2022/10/02 13:52:35;;;;;;;6.53;1.92;;;16.20;99.90;;;;;;6193678;23;20055;-76
2022/10/02 13:55:24;;;;;;;14.93;2.65;;;16.30;99.90;;;;;;6171567;23;20191;-78
2022/10/02 13:58:28;;;;;;;11.50;2.17;;;16.20;99.90;;;;;;6173074;23;20067;-80
2022/10/02 14:01:13;;;;;;;10.00;2.55;;;15.80;99.90;;;;;;6196440;23;20012;-80
2022/10/02 14:03:57;;;;;;;11.13;2.22;;;16.00;99.90;;;;;;6196976;23;20059;-78
2022/10/02 14:06:38;;;;;;;12.60;2.33;;;15.80;99.90;;;;;;6196575;23;20008;-78
2022/10/02 14:09:44;;;;;;;10.23;2.85;;;15.70;99.90;;;;;;6196542;23;20009;-79
2022/10/02 14:12:24;;;;;;;9.98;2.15;;;15.70;99.90;;;;;;6197106;23;20009;-80
2022/10/02 14:15:26;;;;;;;11.27;2.47;;;15.90;99.90;;;;;;6197165;23;20071;-77
2022/10/02 14:17:57;;;;;;;10.48;2.47;;;15.90;99.90;;;;;;6150981;23;20040;-77
2022/10/02 14:20:29;;;;;;;14.77;2.92;;;15.90;99.90;;;;;;6195898;23;20368;-80
2022/10/02 14:23:20;;;;;;;9.20;2.25;;;15.90;99.90;;;;;;6252328;23;20345;-77